KSSC/SSC METAR and TAF weather

Enter ICAO airport designator
Station Type Date Time Source
KSSC METAR 2019/02/18 03:56 UTC NOAA

KSSC 180356Z 05003KT 1/2SM R22/3000FT FG OVC002 07/07 A2992 RMK AO2A CIG 000 RWY04 SLP134 T00710070 TSNO $


Station Type Date Time Source
KSSC Decoded METAR 2019/02/18 03:56 UTC NOAA

Shaw Air Force Base, SC, United States (KSSC) 33-58N 080-29W 73M
Feb 17, 2019 - 10:56 PM EST / 2019.02.18 0356 UTC
Wind: from the NE (050 degrees) at 3 MPH (3 KT):0
Visibility: 1/2 mile(s):0
Sky conditions: overcast
Weather: fog
Temperature: 44.8 F (7.1 C)
Dew Point: 44.6 F (7.0 C)
Relative Humidity: 99%
Pressure (altimeter): 29.92 in. Hg (1013 hPa)
ob: KSSC 180356Z 05003KT 1/2SM R22/3000FT FG OVC002 07/07 A2992 RMK AO2A CIG 000 RWY04 SLP134 T00710070 TSNO
cycle: 4

Station Type Date Time Source
KSSC TAF 2019/02/18 03:36 UTC NOAA

TAF
AMD KSSC 180335Z 1803/1909 17006KT 0800 FG OVC002 WS020/22048KT QNH2983INS
BECMG 1807/1808 21012KT 6000 BR OVC006 WS020/24048KT QNH2982INS
BECMG 1809/1810 24009KT 6000 -SHRA BR OVC006 520104 QNH2982INS
BECMG 1814/1815 27010G15KT 9999 NSW BKN012 OVC045 QNH3001INS
BECMG 1816/1817 31010G15KT 9999 SCT055 QNH3005INS
BECMG 1817/1818 31009KT 9999 FEW150 QNH3006INS
BECMG 1901/1902 03006KT 9999 BKN150 QNH3027INS TX19/1821Z TN06/1900Z


Example: see airport list